sensor_id;sensor_type;location;lat;lon;timestamp;P1;durP1;ratioP1;P2;durP2;ratioP2
70075;SDS011;63241;51.056;3.698;2023-03-15T08:55:27;5.58;;;2.10;;
70075;SDS011;63241;51.056;3.698;2023-03-15T08:57:55;5.65;;;2.30;;
70075;SDS011;63241;51.056;3.698;2023-03-15T09:00:24;2.62;;;1.87;;
70075;SDS011;63241;51.056;3.698;2023-03-15T09:02:56;4.08;;;1.60;;
70075;SDS011;63241;51.056;3.698;2023-03-15T09:08:22;5.70;;;2.37;;
70075;SDS011;63241;51.056;3.698;2023-03-15T09:10:58;6.97;;;2.40;;
70075;SDS011;63241;51.056;3.698;2023-03-15T09:13:23;5.72;;;2.22;;
70075;SDS011;63241;51.056;3.698;2023-03-15T09:21:34;4.70;;;1.57;;
70075;SDS011;63241;51.056;3.698;2023-03-15T09:24:02;4.65;;;1.95;;
70075;SDS011;63241;51.056;3.698;2023-03-15T09:26:29;5.47;;;1.95;;
70075;SDS011;63241;51.056;3.698;2023-03-15T09:34:43;4.77;;;1.93;;
70075;SDS011;63241;51.056;3.698;2023-03-15T09:37:11;5.03;;;2.10;;
70075;SDS011;63241;51.056;3.698;2023-03-15T09:39:38;4.65;;;2.00;;
70075;SDS011;63241;51.056;3.698;2023-03-15T09:42:09;3.30;;;1.40;;
70075;SDS011;63241;51.056;3.698;2023-03-15T09:54:12;5.45;;;2.10;;
70075;SDS011;63241;51.056;3.698;2023-03-15T10:18:24;6.78;;;2.10;;
70075;SDS011;63241;51.056;3.698;2023-03-15T10:24:18;4.00;;;2.20;;
70075;SDS011;63241;51.056;3.698;2023-03-15T10:26:47;7.53;;;2.65;;
70075;SDS011;63241;51.056;3.698;2023-03-15T10:29:18;3.58;;;1.95;;
70075;SDS011;63241;51.056;3.698;2023-03-15T10:37:55;5.00;;;2.02;;
70075;SDS011;63241;51.056;3.698;2023-03-15T10:40:40;7.92;;;2.05;;
70075;SDS011;63241;51.056;3.698;2023-03-15T10:51:47;4.67;;;1.75;;
70075;SDS011;63241;51.056;3.698;2023-03-15T10:54:15;4.05;;;1.55;;
70075;SDS011;63241;51.056;3.698;2023-03-15T10:56:50;6.35;;;1.60;;
70075;SDS011;63241;51.056;3.698;2023-03-15T11:38:55;3.08;;;1.47;;
70075;SDS011;63241;51.056;3.698;2023-03-15T11:41:46;2.80;;;1.15;;
70075;SDS011;63241;51.056;3.698;2023-03-15T11:44:54;2.50;;;1.30;;
70075;SDS011;63241;51.056;3.698;2023-03-15T11:47:31;1.92;;;1.20;;
70075;SDS011;63241;51.056;3.698;2023-03-15T11:49:58;4.05;;;1.70;;
70075;SDS011;63241;51.056;3.698;2023-03-15T11:52:26;4.12;;;2.12;;
70075;SDS011;63241;51.056;3.698;2023-03-15T11:55:01;2.87;;;1.40;;
70075;SDS011;63241;51.056;3.698;2023-03-15T12:05:50;1.98;;;1.07;;
70075;SDS011;63241;51.056;3.698;2023-03-15T12:19:18;2.60;;;1.20;;
70075;SDS011;63241;51.056;3.698;2023-03-15T12:21:49;3.55;;;1.42;;
70075;SDS011;63241;51.056;3.698;2023-03-15T12:24:30;3.77;;;1.60;;
70075;SDS011;63241;51.056;3.698;2023-03-15T12:27:12;2.83;;;1.27;;
70075;SDS011;63241;51.056;3.698;2023-03-15T12:29:34;1.93;;;1.30;;
70075;SDS011;63241;51.056;3.698;2023-03-15T12:34:43;4.22;;;1.17;;
70075;SDS011;63241;51.056;3.698;2023-03-15T12:37:23;6.35;;;1.45;;
70075;SDS011;63241;51.056;3.698;2023-03-15T14:02:03;4.83;;;1.62;;
70075;SDS011;63241;51.056;3.698;2023-03-15T14:04:35;2.58;;;1.40;;
70075;SDS011;63241;51.056;3.698;2023-03-15T14:16:16;4.53;;;2.17;;
70075;SDS011;63241;51.056;3.698;2023-03-15T15:11:55;2.90;;;1.98;;
70075;SDS011;63241;51.056;3.698;2023-03-15T15:14:25;7.12;;;2.25;;
70075;SDS011;63241;51.056;3.698;2023-03-15T15:16:56;4.25;;;1.95;;
70075;SDS011;63241;51.056;3.698;2023-03-15T15:28:19;5.85;;;2.37;;
70075;SDS011;63241;51.056;3.698;2023-03-15T15:30:47;6.42;;;2.65;;
70075;SDS011;63241;51.056;3.698;2023-03-15T15:33:32;7.97;;;3.27;;
70075;SDS011;63241;51.056;3.698;2023-03-15T15:36:31;6.05;;;2.55;;
70075;SDS011;63241;51.056;3.698;2023-03-15T15:39:19;6.65;;;2.72;;
70075;SDS011;63241;51.056;3.698;2023-03-15T15:41:48;5.42;;;2.80;;
70075;SDS011;63241;51.056;3.698;2023-03-15T15:44:17;5.33;;;1.82;;
70075;SDS011;63241;51.056;3.698;2023-03-15T15:46:50;5.05;;;2.00;;
70075;SDS011;63241;51.056;3.698;2023-03-15T15:52:24;4.72;;;1.60;;
70075;SDS011;63241;51.056;3.698;2023-03-15T15:54:52;5.72;;;1.80;;
70075;SDS011;63241;51.056;3.698;2023-03-15T15:57:20;4.00;;;1.57;;
70075;SDS011;63241;51.056;3.698;2023-03-15T16:05:46;1.90;;;1.20;;
70075;SDS011;63241;51.056;3.698;2023-03-15T16:08:19;3.05;;;1.40;;
70075;SDS011;63241;51.056;3.698;2023-03-15T16:10:44;6.42;;;1.35;;
70075;SDS011;63241;51.056;3.698;2023-03-15T16:19:13;3.25;;;1.80;;
70075;SDS011;63241;51.056;3.698;2023-03-15T16:21:41;5.65;;;1.72;;
70075;SDS011;63241;51.056;3.698;2023-03-15T16:24:13;5.80;;;2.50;;
70075;SDS011;63241;51.056;3.698;2023-03-15T16:26:50;7.17;;;1.80;;
70075;SDS011;63241;51.056;3.698;2023-03-15T16:32:25;3.77;;;1.70;;
70075;SDS011;63241;51.056;3.698;2023-03-15T16:34:53;3.35;;;1.60;;
70075;SDS011;63241;51.056;3.698;2023-03-15T16:37:25;4.55;;;1.65;;
70075;SDS011;63241;51.056;3.698;2023-03-15T16:46:17;4.17;;;1.75;;
70075;SDS011;63241;51.056;3.698;2023-03-15T16:48:45;4.67;;;2.10;;
70075;SDS011;63241;51.056;3.698;2023-03-15T16:51:13;4.83;;;1.90;;
70075;SDS011;63241;51.056;3.698;2023-03-15T17:00:10;3.50;;;1.77;;
70075;SDS011;63241;51.056;3.698;2023-03-15T17:02:44;4.87;;;1.70;;
70075;SDS011;63241;51.056;3.698;2023-03-15T17:05:11;5.10;;;1.70;;
70075;SDS011;63241;51.056;3.698;2023-03-15T17:07:46;4.28;;;1.55;;
70075;SDS011;63241;51.056;3.698;2023-03-15T17:13:24;4.75;;;2.02;;
70075;SDS011;63241;51.056;3.698;2023-03-15T17:15:54;4.17;;;1.42;;
70075;SDS011;63241;51.056;3.698;2023-03-15T17:18:21;2.00;;;1.40;;
70075;SDS011;63241;51.056;3.698;2023-03-15T17:27:04;5.33;;;1.75;;
70075;SDS011;63241;51.056;3.698;2023-03-15T17:29:31;5.97;;;2.40;;
70075;SDS011;63241;51.056;3.698;2023-03-15T17:31:59;4.10;;;1.77;;
70075;SDS011;63241;51.056;3.698;2023-03-15T17:34:29;8.15;;;1.98;;
70075;SDS011;63241;51.056;3.698;2023-03-15T17:43:01;7.03;;;2.35;;
70075;SDS011;63241;51.056;3.698;2023-03-15T17:45:31;7.20;;;2.40;;
70075;SDS011;63241;51.056;3.698;2023-03-15T17:48:08;6.50;;;2.60;;
70075;SDS011;63241;51.056;3.698;2023-03-15T17:50:41;7.80;;;1.90;;
70075;SDS011;63241;51.056;3.698;2023-03-15T17:53:12;5.97;;;1.85;;
70075;SDS011;63241;51.056;3.698;2023-03-15T17:55:43;6.55;;;2.30;;
70075;SDS011;63241;51.056;3.698;2023-03-15T18:01:23;8.10;;;2.47;;
70075;SDS011;63241;51.056;3.698;2023-03-15T18:03:59;8.40;;;2.72;;
70075;SDS011;63241;51.056;3.698;2023-03-15T18:06:26;5.60;;;2.02;;
70075;SDS011;63241;51.056;3.698;2023-03-15T18:08:54;6.87;;;2.25;;
70075;SDS011;63241;51.056;3.698;2023-03-15T18:11:36;6.12;;;2.00;;
70075;SDS011;63241;51.056;3.698;2023-03-15T18:14:26;4.85;;;2.12;;
70075;SDS011;63241;51.056;3.698;2023-03-15T18:17:08;7.33;;;2.50;;
70075;SDS011;63241;51.056;3.698;2023-03-15T18:19:37;6.45;;;2.00;;
70075;SDS011;63241;51.056;3.698;2023-03-15T18:22:04;5.62;;;2.00;;
70075;SDS011;63241;51.056;3.698;2023-03-15T18:24:34;4.92;;;2.10;;
70075;SDS011;63241;51.056;3.698;2023-03-15T18:28:03;6.10;;;2.52;;
70075;SDS011;63241;51.056;3.698;2023-03-15T18:30:45;5.17;;;2.17;;
70075;SDS011;63241;51.056;3.698;2023-03-15T18:33:13;5.30;;;2.20;;
70075;SDS011;63241;51.056;3.698;2023-03-15T18:35:40;8.88;;;2.45;;
70075;SDS011;63241;51.056;3.698;2023-03-15T18:44:37;3.67;;;2.25;;
70075;SDS011;63241;51.056;3.698;2023-03-15T18:47:05;6.53;;;2.30;;
70075;SDS011;63241;51.056;3.698;2023-03-15T18:49:33;6.17;;;2.35;;
70075;SDS011;63241;51.056;3.698;2023-03-15T18:52:08;4.87;;;2.70;;
70075;SDS011;63241;51.056;3.698;2023-03-15T18:57:46;5.47;;;2.60;;
70075;SDS011;63241;51.056;3.698;2023-03-15T19:00:17;6.33;;;2.65;;
70075;SDS011;63241;51.056;3.698;2023-03-15T19:02:48;4.60;;;2.58;;
70075;SDS011;63241;51.056;3.698;2023-03-15T19:05:27;5.50;;;2.80;;
70075;SDS011;63241;51.056;3.698;2023-03-15T19:08:17;8.60;;;2.80;;
70075;SDS011;63241;51.056;3.698;2023-03-15T19:11:01;5.95;;;3.00;;
70075;SDS011;63241;51.056;3.698;2023-03-15T19:13:29;26.80;;;4.03;;
70075;SDS011;63241;51.056;3.698;2023-03-15T19:15:57;6.40;;;2.67;;
70075;SDS011;63241;51.056;3.698;2023-03-15T19:18:26;8.85;;;3.00;;
70075;SDS011;63241;51.056;3.698;2023-03-15T19:27:25;7.37;;;3.50;;
70075;SDS011;63241;51.056;3.698;2023-03-15T19:29:53;4.95;;;3.00;;
70075;SDS011;63241;51.056;3.698;2023-03-15T19:32:20;8.85;;;3.60;;
70075;SDS011;63241;51.056;3.698;2023-03-15T19:38:15;14.95;;;4.10;;
70075;SDS011;63241;51.056;3.698;2023-03-15T19:40:43;8.18;;;3.65;;
70075;SDS011;63241;51.056;3.698;2023-03-15T19:43:11;6.33;;;3.50;;
70075;SDS011;63241;51.056;3.698;2023-03-15T19:45:40;6.65;;;2.85;;
70075;SDS011;63241;51.056;3.698;2023-03-15T19:54:21;7.20;;;3.47;;
70075;SDS011;63241;51.056;3.698;2023-03-15T19:56:49;7.37;;;3.05;;
70075;SDS011;63241;51.056;3.698;2023-03-15T19:59:18;7.70;;;3.15;;
70075;SDS011;63241;51.056;3.698;2023-03-15T20:08:05;6.92;;;3.67;;
70075;SDS011;63241;51.056;3.698;2023-03-15T20:10:34;9.93;;;3.95;;
70075;SDS011;63241;51.056;3.698;2023-03-15T20:13:02;8.03;;;3.52;;
70075;SDS011;63241;51.056;3.698;2023-03-15T20:19:00;9.03;;;3.77;;
70075;SDS011;63241;51.056;3.698;2023-03-15T20:21:33;7.95;;;4.12;;
70075;SDS011;63241;51.056;3.698;2023-03-15T20:24:00;7.70;;;3.72;;
70075;SDS011;63241;51.056;3.698;2023-03-15T20:26:29;6.92;;;4.05;;
70075;SDS011;63241;51.056;3.698;2023-03-15T20:32:28;8.65;;;3.90;;
70075;SDS011;63241;51.056;3.698;2023-03-15T20:34:56;9.40;;;4.28;;
70075;SDS011;63241;51.056;3.698;2023-03-15T20:37:26;11.25;;;4.05;;
70075;SDS011;63241;51.056;3.698;2023-03-15T20:39:55;8.35;;;4.28;;
70075;SDS011;63241;51.056;3.698;2023-03-15T20:48:25;10.20;;;4.50;;
70075;SDS011;63241;51.056;3.698;2023-03-15T20:50:54;7.33;;;3.92;;
70075;SDS011;63241;51.056;3.698;2023-03-15T20:53:27;8.88;;;4.55;;
